Zabcikville, Texas
Current Conditions -  °F | °C
As of 10:55 PM on Saturday 22 Nov 2014 (Local Time) from KTPL Reporting Station
Overcast Overcast  
Wind Chill: 57°   Ceiling: 3500
Heat Index: 57°   Visibility: 10mi
Dew Point: 52°   Wind: 5mph
Humidity: 82%   Direction: 50°NE
Pressure: 29.76"   Gusts: NA
Location:  31.0795°N, 97.3287°W
Report Text: KTPL 230455Z AUTO 05004KT 10SM SCT026 BKN035 OVC110 14/11 A2976 RMK AO1 TSB18E33 P0011
Loading
Personal Weather Stations






























Interactive Weather Map New forecast layout! Learn more

10-Day Weather Forecast

Advertisements
Track Severe Weather on mobile